createdAt,value
2022-12-12T00:01:30.782Z,-2.70
2022-12-12T00:03:59.357Z,-2.70
2022-12-12T00:06:29.525Z,-2.80
2022-12-12T00:08:58.480Z,-2.80
2022-12-12T00:11:28.942Z,-4.00
2022-12-12T00:13:57.659Z,-2.80
2022-12-12T00:16:26.316Z,-2.80
2022-12-12T00:18:55.153Z,-2.80
2022-12-12T00:21:26.293Z,-2.70
2022-12-12T00:23:56.401Z,-2.60
2022-12-12T00:26:28.445Z,-2.50
2022-12-12T00:28:58.597Z,-2.40
2022-12-12T00:31:26.795Z,-2.40
2022-12-12T00:33:55.097Z,-2.40
2022-12-12T00:36:27.840Z,-2.30
2022-12-12T00:38:57.933Z,-2.30
2022-12-12T00:41:26.269Z,-2.20
2022-12-12T00:43:54.319Z,-2.20
2022-12-12T00:46:26.107Z,-2.20
2022-12-12T00:48:57.628Z,-2.10
2022-12-12T00:51:29.042Z,-2.00
2022-12-12T00:53:59.898Z,-2.00
2022-12-12T00:56:30.886Z,-2.00
2022-12-12T00:58:59.013Z,-2.00
2022-12-12T01:01:32.037Z,-2.00
2022-12-12T01:04:00.951Z,-2.10
2022-12-12T01:06:29.550Z,-2.00
2022-12-12T01:08:59.126Z,-1.90
2022-12-12T01:11:27.924Z,-2.00
2022-12-12T01:13:57.021Z,-2.00
2022-12-12T01:16:26.801Z,-2.00
2022-12-12T01:18:54.931Z,-2.00
2022-12-12T01:21:23.673Z,-2.00
2022-12-12T01:23:52.285Z,-1.90
2022-12-12T01:26:24.695Z,-1.80
2022-12-12T01:28:53.777Z,-1.90
2022-12-12T01:31:22.575Z,-2.00
2022-12-12T01:33:51.432Z,-2.00
2022-12-12T01:36:25.056Z,-2.10
2022-12-12T01:38:56.948Z,-2.10
2022-12-12T01:41:26.449Z,-2.10
2022-12-12T01:43:54.973Z,-1.90
2022-12-12T01:46:39.717Z,-1.80
2022-12-12T01:49:16.667Z,-1.70
2022-12-12T01:51:46.821Z,-1.60
2022-12-12T01:54:20.712Z,-1.60
2022-12-12T01:56:53.138Z,-1.70
2022-12-12T01:59:24.925Z,-1.70
2022-12-12T02:01:53.876Z,-1.80
2022-12-12T02:04:24.120Z,-1.80
2022-12-12T02:06:53.862Z,-1.70
2022-12-12T02:09:25.436Z,-1.70
2022-12-12T02:11:57.534Z,-1.70
2022-12-12T02:14:31.005Z,-1.80
2022-12-12T02:17:38.895Z,-1.90
2022-12-12T02:20:38.188Z,-1.90
2022-12-12T02:23:59.508Z,-1.80
2022-12-12T02:27:18.143Z,-1.80
2022-12-12T02:30:14.842Z,-1.80
2022-12-12T02:32:59.444Z,-1.80
2022-12-12T02:35:42.365Z,-1.90
2022-12-12T02:38:26.854Z,-1.80
2022-12-12T02:41:08.768Z,-1.80
2022-12-12T02:43:45.838Z,-1.80
2022-12-12T02:46:22.128Z,-1.80
2022-12-12T02:49:01.082Z,-1.80
2022-12-12T02:51:32.920Z,-1.80
2022-12-12T02:54:01.665Z,-1.70
2022-12-12T02:56:51.603Z,-1.70
2022-12-12T02:59:27.312Z,-1.70
2022-12-12T03:02:42.810Z,-1.70
2022-12-12T03:06:02.003Z,-1.60
2022-12-12T03:08:51.150Z,-1.50
2022-12-12T03:11:38.080Z,-1.50
2022-12-12T03:14:18.482Z,-1.40
2022-12-12T03:16:55.586Z,-1.30
2022-12-12T03:19:31.163Z,-1.30
2022-12-12T03:22:08.361Z,-1.40
2022-12-12T03:24:46.334Z,-1.50
2022-12-12T03:27:24.138Z,-1.60
2022-12-12T03:29:59.639Z,-1.60
2022-12-12T03:32:34.739Z,-1.60
2022-12-12T03:35:13.388Z,-1.70
2022-12-12T03:37:51.929Z,-1.80
2022-12-12T03:40:28.649Z,-1.80
2022-12-12T03:43:06.401Z,-1.80
2022-12-12T03:45:45.851Z,-1.70
2022-12-12T03:48:21.063Z,-1.60
2022-12-12T03:50:56.067Z,-1.70
2022-12-12T03:53:35.107Z,-1.70
2022-12-12T03:56:09.074Z,-1.60
2022-12-12T03:58:46.483Z,-1.50
2022-12-12T04:01:16.982Z,-1.40
2022-12-12T04:03:57.519Z,-1.50
2022-12-12T04:06:35.670Z,-1.60
2022-12-12T04:09:26.591Z,-1.70
2022-12-12T04:12:23.264Z,-1.70
2022-12-12T04:15:18.103Z,-1.70
2022-12-12T04:18:03.094Z,-1.70
2022-12-12T04:21:04.911Z,-1.70
2022-12-12T04:23:51.714Z,-1.70
2022-12-12T04:26:41.561Z,-1.80
2022-12-12T04:29:47.427Z,-1.80
2022-12-12T04:32:25.238Z,-1.70
2022-12-12T04:35:00.731Z,-1.70
2022-12-12T04:37:35.620Z,-1.70
2022-12-12T04:40:10.023Z,-1.70
2022-12-12T04:42:47.244Z,-1.80
2022-12-12T04:45:21.166Z,-1.80
2022-12-12T04:47:54.360Z,-1.80
2022-12-12T04:50:26.654Z,-1.80
2022-12-12T04:52:58.718Z,-1.70
2022-12-12T04:55:32.887Z,-1.70
2022-12-12T04:58:05.225Z,-1.70
2022-12-12T05:00:46.548Z,-1.80
2022-12-12T05:03:26.646Z,-1.80
2022-12-12T05:06:00.489Z,-1.70
2022-12-12T05:08:33.785Z,-1.70
2022-12-12T05:11:05.605Z,-1.80
2022-12-12T05:13:39.350Z,-1.80
2022-12-12T05:16:18.765Z,-1.80
2022-12-12T05:18:47.102Z,-1.70
2022-12-12T05:21:16.074Z,-1.70
2022-12-12T05:23:45.023Z,-1.70
2022-12-12T05:26:21.445Z,-1.60
2022-12-12T05:28:51.226Z,-1.50
2022-12-12T05:31:19.428Z,-1.40
2022-12-12T05:33:47.905Z,-1.30
2022-12-12T05:36:16.980Z,-1.30
2022-12-12T05:38:45.408Z,-1.30
2022-12-12T05:41:13.502Z,-1.30
2022-12-12T05:43:41.554Z,-1.20
2022-12-12T05:46:11.025Z,-1.20
2022-12-12T05:48:39.201Z,-1.20
2022-12-12T05:51:07.352Z,-1.20
2022-12-12T05:53:42.197Z,-1.20
2022-12-12T05:56:12.602Z,-1.20
2022-12-12T05:58:41.353Z,-1.10
2022-12-12T06:01:12.008Z,-1.10
2022-12-12T06:03:40.090Z,-1.10
2022-12-12T06:06:09.693Z,-1.10
2022-12-12T06:08:37.785Z,-1.10
2022-12-12T06:11:07.471Z,-1.10
2022-12-12T06:13:35.718Z,-1.10
2022-12-12T06:16:08.312Z,-1.10
2022-12-12T06:18:38.391Z,-1.10
2022-12-12T06:21:09.744Z,-1.10
2022-12-12T06:23:38.876Z,-1.10
2022-12-12T06:26:08.454Z,-1.20
2022-12-12T06:28:36.881Z,-1.10
2022-12-12T06:31:11.299Z,-1.10
2022-12-12T06:33:42.502Z,-1.10
2022-12-12T06:36:16.164Z,-1.10
2022-12-12T06:38:44.297Z,-1.10
2022-12-12T06:41:14.844Z,-1.10
2022-12-12T06:43:45.886Z,-1.10
2022-12-12T06:46:17.570Z,-1.00
2022-12-12T06:48:47.279Z,-1.00
2022-12-12T06:51:20.251Z,-1.00
2022-12-12T06:53:49.362Z,-1.00
2022-12-12T06:56:21.413Z,-1.00
2022-12-12T06:58:50.548Z,-1.00
2022-12-12T07:01:22.146Z,-1.00
2022-12-12T07:03:53.482Z,-1.00
2022-12-12T07:06:24.281Z,-1.20
2022-12-12T07:08:53.657Z,-1.20
2022-12-12T07:11:25.857Z,-1.20
2022-12-12T07:13:56.594Z,-1.20
2022-12-12T07:16:25.199Z,-1.20
2022-12-12T07:18:54.640Z,-1.20
2022-12-12T07:21:23.044Z,-1.30
2022-12-12T07:23:51.068Z,-1.20
2022-12-12T07:26:24.145Z,-1.20
2022-12-12T07:28:53.139Z,-1.20
2022-12-12T07:31:25.457Z,-1.20
2022-12-12T07:33:55.329Z,-1.10
2022-12-12T07:36:23.491Z,-1.10
2022-12-12T07:38:52.022Z,-1.10
2022-12-12T07:41:21.496Z,-1.00
2022-12-12T07:43:51.076Z,-0.70
2022-12-12T07:46:23.703Z,-0.90
2022-12-12T07:48:54.460Z,-0.80
2022-12-12T07:51:23.820Z,-0.80
2022-12-12T07:53:52.117Z,-0.80
2022-12-12T07:56:20.882Z,-0.80
2022-12-12T07:58:49.709Z,-0.60
2022-12-12T08:01:20.772Z,-0.50
2022-12-12T08:03:50.178Z,-0.50
2022-12-12T08:06:20.990Z,-0.50
2022-12-12T08:08:50.888Z,-0.50
2022-12-12T08:11:21.912Z,-0.40
2022-12-12T08:13:53.943Z,0.30
2022-12-12T08:16:25.872Z,-0.30
2022-12-12T08:18:55.268Z,-0.30
2022-12-12T08:21:26.855Z,-0.20
2022-12-12T08:23:57.892Z,-0.20
2022-12-12T08:26:27.010Z,-0.20
2022-12-12T08:28:55.970Z,-0.20
2022-12-12T08:31:24.858Z,-0.30
2022-12-12T08:33:53.122Z,-0.20
2022-12-12T08:36:26.692Z,-0.20
2022-12-12T08:38:54.726Z,-0.10
2022-12-12T08:41:25.045Z,-0.10
2022-12-12T08:43:53.262Z,-0.10
2022-12-12T08:46:22.778Z,-0.20
2022-12-12T08:48:51.303Z,-0.10
2022-12-12T08:51:19.817Z,-0.10
2022-12-12T08:53:52.752Z,0.00
2022-12-12T08:56:22.987Z,0.00
2022-12-12T08:58:52.072Z,0.00
2022-12-12T09:01:27.290Z,0.00
2022-12-12T09:03:57.961Z,-0.10
2022-12-12T09:06:27.390Z,-0.10
2022-12-12T09:08:57.341Z,-0.10
2022-12-12T09:11:26.718Z,0.00
2022-12-12T09:13:54.736Z,0.00
2022-12-12T09:16:23.429Z,0.00
2022-12-12T09:18:51.516Z,0.00
2022-12-12T09:21:20.095Z,0.00
2022-12-12T09:23:48.942Z,0.10
2022-12-12T09:26:18.824Z,0.30
2022-12-12T09:28:47.125Z,0.50
2022-12-12T09:31:15.898Z,0.60
2022-12-12T09:33:44.127Z,0.80
2022-12-12T09:36:13.826Z,0.90
2022-12-12T09:38:42.228Z,1.00
2022-12-12T09:41:19.036Z,1.00
2022-12-12T09:43:56.850Z,1.10
2022-12-12T09:46:38.790Z,1.20
2022-12-12T09:49:16.494Z,1.20
2022-12-12T09:51:49.148Z,1.30
2022-12-12T09:54:21.545Z,1.40
2022-12-12T09:57:07.175Z,1.50
2022-12-12T09:59:45.164Z,1.60
2022-12-12T10:02:41.809Z,1.80
2022-12-12T10:05:30.217Z,2.00
2022-12-12T10:08:10.390Z,2.30
2022-12-12T10:10:43.517Z,2.50
2022-12-12T10:13:18.934Z,2.60
2022-12-12T10:15:50.242Z,2.50
2022-12-12T10:18:27.855Z,2.70
2022-12-12T10:21:00.849Z,2.70
2022-12-12T10:23:39.716Z,2.70
2022-12-12T10:26:15.575Z,2.70
2022-12-12T10:28:48.650Z,2.70
2022-12-12T10:31:34.153Z,2.80
2022-12-12T10:34:18.757Z,2.90
2022-12-12T10:37:10.382Z,2.90
2022-12-12T10:39:59.197Z,2.90
2022-12-12T10:42:41.108Z,2.90
2022-12-12T10:45:44.654Z,3.00
2022-12-12T10:48:12.933Z,2.90
2022-12-12T10:50:47.838Z,2.80
2022-12-12T10:53:16.377Z,2.90
2022-12-12T10:55:53.393Z,2.80
2022-12-12T10:58:26.648Z,2.80
2022-12-12T11:01:06.120Z,2.80
2022-12-12T11:03:39.873Z,2.70
2022-12-12T11:06:13.871Z,2.50
2022-12-12T11:08:56.352Z,2.60
2022-12-12T11:11:27.026Z,2.70
2022-12-12T11:13:59.222Z,2.70
2022-12-12T11:16:31.603Z,2.60
2022-12-12T11:19:06.017Z,2.50
2022-12-12T11:21:36.730Z,2.40
2022-12-12T11:24:10.397Z,2.20
2022-12-12T11:26:48.252Z,2.10
2022-12-12T11:29:32.188Z,2.10
2022-12-12T11:32:03.729Z,2.00
2022-12-12T11:34:44.190Z,2.00
2022-12-12T11:37:18.168Z,2.00
2022-12-12T11:39:51.829Z,2.00
2022-12-12T11:42:26.456Z,1.90
2022-12-12T11:45:05.277Z,1.80
2022-12-12T11:47:41.855Z,1.80
2022-12-12T11:50:25.495Z,1.80
2022-12-12T11:52:57.485Z,1.80
2022-12-12T11:55:40.213Z,1.80
2022-12-12T11:58:23.234Z,1.80
2022-12-12T12:01:00.661Z,1.80
2022-12-12T12:03:56.661Z,1.80
2022-12-12T12:06:53.792Z,1.80
2022-12-12T12:09:33.782Z,1.80
2022-12-12T12:12:13.907Z,1.80
2022-12-12T12:15:05.133Z,1.70
2022-12-12T12:18:04.594Z,1.70
2022-12-12T12:21:03.604Z,1.60
2022-12-12T12:23:50.651Z,1.40
2022-12-12T12:26:32.401Z,1.30
2022-12-12T12:29:28.580Z,1.30
2022-12-12T12:32:12.022Z,1.30
2022-12-12T12:34:55.017Z,1.30
2022-12-12T12:37:43.540Z,1.20
2022-12-12T12:40:32.093Z,1.20
2022-12-12T12:43:30.338Z,1.30
2022-12-12T12:46:08.059Z,1.30
2022-12-12T12:48:42.120Z,1.30
2022-12-12T12:51:19.827Z,1.30
2022-12-12T12:53:55.685Z,1.20
2022-12-12T12:56:29.129Z,1.20
2022-12-12T12:59:02.395Z,1.10
2022-12-12T13:01:38.625Z,1.10
2022-12-12T13:04:17.829Z,1.10
2022-12-12T13:06:52.552Z,1.10
2022-12-12T13:09:35.950Z,0.90
2022-12-12T13:12:16.124Z,0.60
2022-12-12T13:14:51.913Z,1.10
2022-12-12T13:17:27.649Z,1.10
2022-12-12T13:19:59.001Z,0.90
2022-12-12T13:22:41.927Z,1.00
2022-12-12T13:25:27.231Z,0.90
2022-12-12T13:27:58.887Z,0.90
2022-12-12T13:30:42.297Z,0.80
2022-12-12T13:33:33.253Z,0.70
2022-12-12T13:36:15.278Z,0.80
2022-12-12T13:38:50.402Z,0.70
2022-12-12T13:41:19.952Z,0.70
2022-12-12T13:43:51.115Z,0.60
2022-12-12T13:46:41.513Z,0.20
2022-12-12T13:49:26.033Z,0.60
2022-12-12T13:52:23.923Z,0.50
2022-12-12T13:54:56.517Z,0.50
2022-12-12T13:57:35.006Z,0.40
2022-12-12T14:00:21.905Z,0.40
2022-12-12T14:03:22.197Z,0.20
2022-12-12T14:05:52.413Z,0.10
2022-12-12T14:08:34.537Z,-0.10
2022-12-12T14:11:06.996Z,-0.20
2022-12-12T14:13:45.286Z,-0.20
2022-12-12T14:16:26.569Z,-0.20
2022-12-12T14:19:04.578Z,-0.20
2022-12-12T14:21:47.298Z,-0.30
2022-12-12T14:24:48.354Z,-0.40
2022-12-12T14:27:16.705Z,-0.50
2022-12-12T14:29:47.715Z,-0.50
2022-12-12T14:32:47.038Z,-0.70
2022-12-12T14:35:32.603Z,-0.80
2022-12-12T14:38:21.977Z,-0.80
2022-12-12T14:41:02.970Z,-0.90
2022-12-12T14:43:38.207Z,-0.90
2022-12-12T14:46:15.377Z,-1.00
2022-12-12T14:48:43.915Z,-1.00
2022-12-12T14:51:25.848Z,-1.10
2022-12-12T14:54:00.970Z,-1.10
2022-12-12T14:56:34.928Z,-1.20
2022-12-12T14:59:07.446Z,-1.20
2022-12-12T15:01:40.423Z,-1.30
2022-12-12T15:04:13.105Z,-1.40
2022-12-12T15:06:43.084Z,-1.40
2022-12-12T15:09:19.988Z,-1.40
2022-12-12T15:11:50.121Z,-1.50
2022-12-12T15:14:25.723Z,-1.60
2022-12-12T15:17:04.098Z,-1.70
2022-12-12T15:19:38.353Z,-1.70
2022-12-12T15:22:13.277Z,-1.80
2022-12-12T15:24:41.529Z,-1.90
2022-12-12T15:27:19.376Z,-2.00
2022-12-12T15:29:47.622Z,-2.00
2022-12-12T15:32:21.041Z,-2.00
2022-12-12T15:35:02.613Z,-2.10
2022-12-12T15:37:33.321Z,-2.10
2022-12-12T15:40:31.375Z,-2.20
2022-12-12T15:43:02.941Z,-2.20
2022-12-12T15:45:36.770Z,-2.20
2022-12-12T15:48:08.036Z,-2.30
2022-12-12T15:50:56.229Z,-2.30
2022-12-12T15:53:27.874Z,-2.30
2022-12-12T15:56:02.243Z,-2.20
2022-12-12T15:58:36.450Z,-1.70
2022-12-12T16:01:20.750Z,-2.20
2022-12-12T16:04:01.218Z,-2.20
2022-12-12T16:06:31.763Z,-2.30
2022-12-12T16:09:16.938Z,-2.30
2022-12-12T16:11:47.370Z,-1.60
2022-12-12T16:14:43.227Z,-2.50
2022-12-12T16:17:19.437Z,-2.60
2022-12-12T16:19:55.875Z,-2.60
2022-12-12T16:22:37.145Z,-2.70
2022-12-12T16:25:18.383Z,-2.70
2022-12-12T16:27:49.241Z,-2.70
2022-12-12T16:30:18.592Z,-2.80
2022-12-12T16:32:46.767Z,-2.80
2022-12-12T16:35:18.565Z,-2.80
2022-12-12T16:37:46.738Z,-2.90
2022-12-12T16:40:17.937Z,-2.90
2022-12-12T16:42:54.185Z,-3.00
2022-12-12T16:45:22.389Z,-3.00
2022-12-12T16:47:50.510Z,-3.10
2022-12-12T16:50:22.975Z,-3.10
2022-12-12T16:52:51.001Z,-3.00
2022-12-12T16:55:24.027Z,-3.10
2022-12-12T16:57:52.025Z,-3.10
2022-12-12T17:00:20.773Z,-3.00
2022-12-12T17:02:48.979Z,-3.10
2022-12-12T17:05:24.335Z,-3.10
2022-12-12T17:07:54.079Z,-3.20
2022-12-12T17:10:25.312Z,-3.20
2022-12-12T17:12:55.521Z,-3.30
2022-12-12T17:15:27.239Z,-3.40
2022-12-12T17:17:55.754Z,-3.30
2022-12-12T17:20:26.685Z,-3.40
2022-12-12T17:22:55.161Z,-3.40
2022-12-12T17:25:23.867Z,-3.40
2022-12-12T17:27:53.288Z,-3.50
2022-12-12T17:30:22.213Z,-3.50
2022-12-12T17:35:37.995Z,-3.50
2022-12-12T17:38:08.341Z,-3.50
2022-12-12T17:40:44.142Z,-3.10
2022-12-12T17:43:12.241Z,-3.50
2022-12-12T17:45:41.295Z,-3.50
2022-12-12T17:48:10.461Z,-3.60
2022-12-12T17:50:41.685Z,-3.60
2022-12-12T17:53:10.070Z,-3.60
2022-12-12T17:55:53.045Z,-3.60
2022-12-12T17:58:29.545Z,-3.70
2022-12-12T18:00:57.903Z,-3.70
2022-12-12T18:03:25.948Z,-3.80
2022-12-12T18:05:55.293Z,-3.80
2022-12-12T18:08:23.391Z,-3.80
2022-12-12T18:10:51.464Z,-3.80
2022-12-12T18:13:22.153Z,-3.80
2022-12-12T18:15:56.112Z,-3.80
2022-12-12T18:18:24.769Z,-3.80
2022-12-12T18:20:53.493Z,-3.80
2022-12-12T18:23:23.909Z,-3.80
2022-12-12T18:25:51.940Z,-3.80
2022-12-12T18:28:20.051Z,-3.80
2022-12-12T18:30:50.439Z,-3.90
2022-12-12T18:33:18.444Z,-3.90
2022-12-12T18:35:49.440Z,-3.90
2022-12-12T18:38:19.150Z,-3.90
2022-12-12T18:40:48.676Z,-3.90
2022-12-12T18:43:17.461Z,-3.90
2022-12-12T18:45:45.751Z,-3.90
2022-12-12T18:48:13.866Z,-3.90
2022-12-12T18:50:42.045Z,-3.90
2022-12-12T18:53:10.081Z,-4.00
2022-12-12T18:55:42.847Z,-4.00
2022-12-12T18:58:12.528Z,-4.00
2022-12-12T19:00:40.923Z,-4.00
2022-12-12T19:03:09.222Z,-3.90
2022-12-12T19:05:42.400Z,-4.00
2022-12-12T19:08:11.367Z,-4.00
2022-12-12T19:10:40.786Z,-4.00
2022-12-12T19:13:08.918Z,-4.00
2022-12-12T19:15:39.276Z,-4.00
2022-12-12T19:18:07.402Z,-4.00
2022-12-12T19:20:36.605Z,-4.00
2022-12-12T19:23:04.670Z,-4.00
2022-12-12T19:25:40.784Z,-4.10
2022-12-12T19:28:11.395Z,-4.10
2022-12-12T19:30:42.701Z,-4.00
2022-12-12T19:33:10.848Z,-4.10
2022-12-12T19:35:39.425Z,-4.10
2022-12-12T19:38:07.445Z,-4.20
2022-12-12T19:40:35.466Z,-4.10
2022-12-12T19:43:03.519Z,-4.20
2022-12-12T19:45:31.595Z,-4.20
2022-12-12T19:48:01.181Z,-4.30
2022-12-12T19:50:29.184Z,-4.20
2022-12-12T19:52:57.233Z,-4.20
2022-12-12T19:55:25.277Z,-4.20
2022-12-12T19:57:53.298Z,-4.30
2022-12-12T20:00:21.497Z,-4.30
2022-12-12T20:02:49.646Z,-4.30
2022-12-12T20:05:19.815Z,-4.30
2022-12-12T20:07:47.943Z,-4.40
2022-12-12T20:10:16.304Z,-4.40
2022-12-12T20:12:54.694Z,-4.40
2022-12-12T20:15:26.691Z,-4.40
2022-12-12T20:17:56.240Z,-4.50
2022-12-12T20:20:25.928Z,-4.50
2022-12-12T20:22:54.163Z,-4.50
2022-12-12T20:25:22.171Z,-4.50
2022-12-12T20:27:50.302Z,-4.50
2022-12-12T20:30:18.655Z,-4.60
2022-12-12T20:32:46.672Z,-4.60
2022-12-12T20:35:14.815Z,-4.60
2022-12-12T20:37:44.154Z,-4.70
2022-12-12T20:40:13.684Z,-4.70
2022-12-12T20:42:41.839Z,-4.70
2022-12-12T20:45:10.857Z,-4.70
2022-12-12T20:47:38.889Z,-4.70
2022-12-12T20:50:07.729Z,-4.70
2022-12-12T20:52:39.598Z,-4.70
2022-12-12T20:55:10.251Z,-4.70
2022-12-12T20:57:38.271Z,-4.70
2022-12-12T21:00:08.861Z,-4.70
2022-12-12T21:02:39.440Z,-4.80
2022-12-12T21:05:09.190Z,-4.80
2022-12-12T21:07:37.293Z,-4.80
2022-12-12T21:10:06.318Z,-4.80
2022-12-12T21:12:35.727Z,-4.90
2022-12-12T21:15:03.948Z,-4.90
2022-12-12T21:17:32.061Z,-4.90
2022-12-12T21:20:06.105Z,-4.90
2022-12-12T21:22:34.612Z,-5.00
2022-12-12T21:25:02.681Z,-4.90
2022-12-12T21:27:31.761Z,-4.90
2022-12-12T21:30:01.257Z,-4.90
2022-12-12T21:32:29.318Z,-5.00
2022-12-12T21:34:57.448Z,-5.00
2022-12-12T21:37:25.514Z,-5.00
2022-12-12T21:39:54.586Z,-4.90
2022-12-12T21:42:22.731Z,-5.00
2022-12-12T21:44:50.750Z,-5.00
2022-12-12T21:47:20.229Z,-4.90
2022-12-12T21:49:48.250Z,-4.90
2022-12-12T21:52:16.389Z,-4.90
2022-12-12T21:54:44.456Z,-5.00
2022-12-12T21:57:12.647Z,-4.90
2022-12-12T21:59:41.913Z,-4.90
2022-12-12T22:02:14.425Z,-4.90
2022-12-12T22:04:43.771Z,-5.00
2022-12-12T22:07:12.155Z,-5.00
2022-12-12T22:09:41.188Z,-5.00
2022-12-12T22:12:09.892Z,-4.90
2022-12-12T22:14:37.956Z,-4.90
2022-12-12T22:17:07.178Z,-4.90
2022-12-12T22:19:35.180Z,-4.90
2022-12-12T22:22:04.540Z,-5.00
2022-12-12T22:24:32.717Z,-5.00
2022-12-12T22:27:02.299Z,-5.00
2022-12-12T22:29:30.516Z,-5.10
2022-12-12T22:31:58.595Z,-5.10
2022-12-12T22:34:28.646Z,-5.10
2022-12-12T22:36:56.677Z,-5.10
2022-12-12T22:39:28.742Z,-5.20
2022-12-12T22:41:57.780Z,-5.20
2022-12-12T22:44:28.619Z,-5.20
2022-12-12T22:46:57.226Z,-5.20
2022-12-12T22:49:27.863Z,-5.20
2022-12-12T22:51:57.930Z,-5.20
2022-12-12T22:54:28.148Z,-4.30
2022-12-12T22:56:56.536Z,-5.30
2022-12-12T22:59:25.367Z,-5.30
2022-12-12T23:01:53.491Z,-5.30
2022-12-12T23:04:21.618Z,-5.30
2022-12-12T23:06:49.696Z,-5.10
2022-12-12T23:09:21.812Z,-5.20
2022-12-12T23:11:51.740Z,-5.30
2022-12-12T23:14:24.825Z,-5.40
2022-12-12T23:16:54.624Z,-5.40
2022-12-12T23:19:27.214Z,-5.40
2022-12-12T23:21:55.309Z,-5.40
2022-12-12T23:24:23.508Z,-5.40
2022-12-12T23:26:53.043Z,-5.40
2022-12-12T23:29:23.165Z,-5.40
2022-12-12T23:31:51.752Z,-5.40
2022-12-12T23:34:24.395Z,-5.50
2022-12-12T23:36:54.052Z,-5.50
2022-12-12T23:39:23.398Z,-5.50
2022-12-12T23:41:53.173Z,-5.50
2022-12-12T23:44:24.340Z,-5.50
2022-12-12T23:46:53.578Z,-5.50
2022-12-12T23:49:24.177Z,-5.40
2022-12-12T23:51:55.564Z,-5.40
2022-12-12T23:54:26.724Z,-5.40
2022-12-12T23:56:56.963Z,-5.40
2022-12-12T23:59:27.035Z,-5.40
